Terminal Aerodrome Forecast
Issued by NWS

Home | Current Version | Previous Version | Text Only | Print | Product List | Glossary On
Versions: 1 2 3 4 5 6 7 8 9 10 11 12 13 14 15 16
000
FTUS45 KABQ 032342
TAFROW
TAF
KROW 032342Z 0400/0424 12011KT P6SM SCT070 BKN120
      TEMPO 0400/0402 VRB15G25KT -SHRA BKN060
     FM040400 VRB05KT P6SM BKN120
     FM041900 15009KT P6SM FEW070=

USA.gov is the U.S. government's official web portal to all federal, state and local government web resources and services.